createdAt,value
2022-08-17T00:00:43.261Z,14.00
2022-08-17T00:03:29.469Z,9.70
2022-08-17T00:06:38.144Z,14.70
2022-08-17T00:09:07.164Z,8.13
2022-08-17T00:11:40.050Z,10.88
2022-08-17T00:14:19.968Z,2.95
2022-08-17T00:16:56.916Z,3.20
2022-08-17T00:19:27.358Z,2.88
2022-08-17T00:22:31.732Z,3.47
2022-08-17T00:24:47.864Z,7.63
2022-08-17T00:27:16.475Z,3.40
2022-08-17T00:29:46.828Z,8.35
2022-08-17T00:33:12.213Z,3.70
2022-08-17T00:35:10.875Z,4.03
2022-08-17T00:37:39.724Z,4.13
2022-08-17T00:40:10.606Z,5.70
2022-08-17T00:42:40.022Z,7.50
2022-08-17T00:45:11.520Z,4.53
2022-08-17T00:47:41.338Z,4.20
2022-08-17T00:50:14.113Z,9.05
2022-08-17T00:52:55.967Z,8.02
2022-08-17T00:55:26.012Z,2.20
2022-08-17T00:58:00.290Z,7.82
2022-08-17T01:00:33.647Z,3.35
2022-08-17T01:03:07.932Z,8.82
2022-08-17T01:05:42.402Z,6.88
2022-08-17T01:08:15.259Z,6.45
2022-08-17T01:11:00.186Z,3.72
2022-08-17T01:13:40.155Z,7.05
2022-08-17T01:16:28.855Z,9.88
2022-08-17T01:19:01.879Z,4.63
2022-08-17T01:21:57.275Z,2.20
2022-08-17T01:24:26.476Z,11.82
2022-08-17T01:26:56.605Z,11.48
2022-08-17T01:29:27.013Z,10.88
2022-08-17T01:31:58.870Z,3.65
2022-08-17T01:34:42.086Z,2.45
2022-08-17T01:37:13.678Z,1.83
2022-08-17T01:39:54.206Z,15.73
2022-08-17T01:42:28.858Z,22.45
2022-08-17T01:45:00.341Z,13.68
2022-08-17T01:47:29.868Z,11.45
2022-08-17T01:49:59.742Z,13.55
2022-08-17T01:52:28.355Z,8.25
2022-08-17T01:54:57.871Z,9.40
2022-08-17T01:57:26.690Z,17.20
2022-08-17T01:59:55.368Z,8.15
2022-08-17T02:02:30.801Z,14.43
2022-08-17T02:05:01.027Z,16.27
2022-08-17T02:07:29.971Z,26.23
2022-08-17T02:09:59.579Z,11.93
2022-08-17T02:12:37.913Z,11.27
2022-08-17T02:15:11.102Z,9.07
2022-08-17T02:17:41.949Z,12.80
2022-08-17T02:20:12.499Z,3.78
2022-08-17T02:22:44.090Z,6.30
2022-08-17T02:25:17.529Z,11.53
2022-08-17T02:27:46.259Z,5.82
2022-08-17T02:31:00.130Z,12.10
2022-08-17T02:33:06.252Z,5.70
2022-08-17T02:35:38.815Z,5.07
2022-08-17T02:38:08.834Z,6.38
2022-08-17T02:40:38.652Z,19.15
2022-08-17T02:43:07.715Z,46.03
2022-08-17T02:45:36.170Z,37.72
2022-08-17T02:48:05.470Z,33.53
2022-08-17T02:50:34.368Z,38.30
2022-08-17T02:53:04.780Z,36.70
2022-08-17T02:55:37.657Z,31.90
2022-08-17T03:00:37.929Z,22.92
2022-08-17T03:03:08.365Z,27.42
2022-08-17T03:05:39.093Z,28.05
2022-08-17T03:08:13.105Z,21.88
2022-08-17T03:10:42.751Z,30.35
2022-08-17T03:13:11.890Z,15.63
2022-08-17T03:15:43.970Z,13.27
2022-08-17T03:18:20.109Z,5.72
2022-08-17T03:20:59.343Z,9.48
2022-08-17T03:23:30.319Z,7.95
2022-08-17T03:25:59.373Z,14.57
2022-08-17T03:28:29.578Z,9.93
2022-08-17T03:30:58.158Z,12.10
2022-08-17T03:33:26.935Z,9.80
2022-08-17T03:35:55.545Z,5.97
2022-08-17T03:38:24.217Z,10.25
2022-08-17T03:40:57.161Z,9.45
2022-08-17T03:43:31.929Z,6.78
2022-08-17T03:46:34.003Z,8.77
2022-08-17T03:49:24.187Z,9.13
2022-08-17T03:52:11.549Z,4.15
2022-08-17T03:54:59.357Z,15.43
2022-08-17T03:57:28.421Z,11.40
2022-08-17T03:59:57.949Z,8.70
2022-08-17T04:02:31.067Z,10.60
2022-08-17T04:05:00.403Z,9.13
2022-08-17T04:07:31.668Z,2.95
2022-08-17T04:10:02.126Z,3.22
2022-08-17T04:12:55.951Z,4.22
2022-08-17T04:15:29.641Z,7.65
2022-08-17T04:18:01.864Z,5.93
2022-08-17T04:20:31.470Z,6.00
2022-08-17T04:23:10.961Z,10.27
2022-08-17T04:25:43.913Z,9.82
2022-08-17T04:28:15.832Z,9.25
2022-08-17T04:30:46.737Z,9.93
2022-08-17T04:33:19.438Z,7.72
2022-08-17T04:35:52.035Z,9.55
2022-08-17T04:38:26.175Z,4.32
2022-08-17T04:41:13.935Z,5.18
2022-08-17T04:43:44.399Z,3.25
2022-08-17T04:46:18.394Z,5.05
2022-08-17T04:48:52.098Z,7.95
2022-08-17T04:51:26.568Z,6.53
2022-08-17T04:53:59.201Z,6.93
2022-08-17T04:56:30.120Z,2.70
2022-08-17T04:59:04.199Z,8.20
2022-08-17T05:01:36.801Z,12.43
2022-08-17T05:04:33.258Z,12.68
2022-08-17T05:06:58.135Z,7.72
2022-08-17T05:09:26.700Z,11.43
2022-08-17T05:11:56.309Z,3.72
2022-08-17T05:14:32.895Z,10.93
2022-08-17T05:17:07.447Z,7.18
2022-08-17T05:19:40.491Z,9.02
2022-08-17T05:22:09.862Z,8.75
2022-08-17T05:24:43.475Z,5.95
2022-08-17T05:27:22.858Z,9.02
2022-08-17T05:29:52.470Z,9.10
2022-08-17T05:32:38.905Z,11.30
2022-08-17T05:35:10.070Z,4.60
2022-08-17T05:37:39.247Z,7.97
2022-08-17T05:40:09.114Z,1.58
2022-08-17T05:43:00.054Z,5.57
2022-08-17T05:45:54.468Z,5.03
2022-08-17T05:48:22.775Z,2.40
2022-08-17T05:51:44.004Z,5.55
2022-08-17T05:54:40.904Z,15.38
2022-08-17T05:57:39.890Z,18.27
2022-08-17T06:00:30.382Z,8.75
2022-08-17T06:03:27.454Z,5.88
2022-08-17T06:06:25.129Z,13.77
2022-08-17T06:09:11.422Z,10.73
2022-08-17T06:11:54.036Z,7.30
2022-08-17T06:14:55.337Z,8.73
2022-08-17T06:17:28.681Z,13.82
2022-08-17T06:20:05.268Z,9.38
2022-08-17T06:22:43.798Z,12.82
2022-08-17T06:25:27.416Z,6.22
2022-08-17T06:28:03.540Z,5.60
2022-08-17T06:30:59.218Z,9.73
2022-08-17T06:33:35.364Z,9.07
2022-08-17T06:36:30.125Z,6.32
2022-08-17T06:39:29.994Z,11.07
2022-08-17T06:41:58.742Z,9.38
2022-08-17T06:45:04.867Z,11.60
2022-08-17T06:47:44.125Z,4.30
2022-08-17T06:50:43.288Z,9.30
2022-08-17T06:53:30.790Z,5.72
2022-08-17T06:56:13.155Z,4.32
2022-08-17T06:58:44.598Z,14.67
2022-08-17T07:01:22.247Z,6.07
2022-08-17T07:03:59.205Z,13.18
2022-08-17T07:07:02.918Z,9.88
2022-08-17T07:09:37.553Z,8.68
2022-08-17T07:12:12.720Z,7.82
2022-08-17T07:14:54.980Z,9.50
2022-08-17T07:17:46.714Z,26.65
2022-08-17T07:20:24.591Z,13.00
2022-08-17T07:23:00.630Z,3.10
2022-08-17T07:25:31.785Z,5.82
2022-08-17T07:28:06.994Z,17.85
2022-08-17T07:30:47.478Z,6.55
2022-08-17T07:33:21.514Z,5.63
2022-08-17T07:35:51.053Z,4.57
2022-08-17T07:38:30.696Z,1.67
2022-08-17T07:41:03.423Z,10.32
2022-08-17T07:43:35.707Z,9.18
2022-08-17T07:46:36.978Z,4.43
2022-08-17T07:49:08.766Z,3.13
2022-08-17T07:51:42.432Z,6.15
2022-08-17T07:54:17.144Z,1.70
2022-08-17T07:56:51.239Z,1.88
2022-08-17T07:59:23.366Z,1.10
2022-08-17T08:02:16.297Z,2.17
2022-08-17T08:05:11.196Z,3.00
2022-08-17T08:07:57.209Z,2.80
2022-08-17T08:10:45.024Z,3.58
2022-08-17T08:13:25.105Z,4.70
2022-08-17T08:15:57.094Z,1.60
2022-08-17T08:18:53.740Z,5.60
2022-08-17T08:21:34.615Z,3.13
2022-08-17T08:24:31.290Z,1.40
2022-08-17T08:27:11.892Z,1.80
2022-08-17T08:30:07.966Z,1.50
2022-08-17T08:32:39.508Z,2.13
2022-08-17T08:35:32.123Z,3.05
2022-08-17T08:38:09.527Z,2.00
2022-08-17T08:41:14.357Z,2.72
2022-08-17T08:44:08.215Z,5.68
2022-08-17T08:47:01.267Z,1.90
2022-08-17T08:50:05.640Z,5.32
2022-08-17T08:53:01.535Z,8.05
2022-08-17T08:55:39.619Z,3.78
2022-08-17T08:58:31.884Z,2.25
2022-08-17T09:01:19.185Z,2.83
2022-08-17T09:04:37.283Z,4.78
2022-08-17T09:08:05.820Z,2.72
2022-08-17T09:11:06.503Z,1.42
2022-08-17T09:13:54.268Z,2.53
2022-08-17T09:16:52.519Z,1.17
2022-08-17T09:19:42.326Z,2.35
2022-08-17T09:22:35.899Z,2.75
2022-08-17T09:28:05.041Z,1.75
2022-08-17T09:30:56.916Z,4.63
2022-08-17T09:33:28.346Z,1.80
2022-08-17T09:36:40.523Z,4.22
2022-08-17T09:39:15.089Z,1.67
2022-08-17T09:42:01.852Z,2.00
2022-08-17T09:44:42.295Z,1.27
2022-08-17T09:47:47.669Z,3.17
2022-08-17T09:51:03.409Z,5.38
2022-08-17T09:53:17.562Z,3.28
2022-08-17T09:56:04.772Z,6.20
2022-08-17T09:59:10.202Z,0.90
2022-08-17T10:01:45.823Z,1.05
2022-08-17T10:04:35.550Z,3.45
2022-08-17T10:07:19.147Z,4.53
2022-08-17T10:10:14.481Z,1.73
2022-08-17T10:12:55.157Z,2.05
2022-08-17T10:15:26.850Z,6.93
2022-08-17T10:18:33.365Z,1.92
2022-08-17T10:21:33.273Z,2.20
2022-08-17T10:25:21.559Z,3.15
2022-08-17T10:27:53.211Z,5.20
2022-08-17T10:30:25.989Z,4.45
2022-08-17T10:32:56.763Z,5.28
2022-08-17T10:35:39.976Z,1.95
2022-08-17T10:38:42.777Z,1.50
2022-08-17T10:41:42.594Z,3.45
2022-08-17T10:44:42.076Z,5.00
2022-08-17T10:47:17.183Z,2.22
2022-08-17T10:49:54.944Z,2.30
2022-08-17T10:52:27.587Z,1.23
2022-08-17T10:54:58.875Z,1.42
2022-08-17T10:57:36.153Z,2.17
2022-08-17T11:00:27.406Z,6.55
2022-08-17T11:02:58.688Z,4.18
2022-08-17T11:05:57.083Z,3.72
2022-08-17T11:09:06.845Z,9.93
2022-08-17T11:11:57.912Z,2.88
2022-08-17T11:14:41.169Z,1.73
2022-08-17T11:17:24.247Z,4.35
2022-08-17T11:20:10.612Z,4.15
2022-08-17T11:23:14.215Z,1.52
2022-08-17T11:25:48.844Z,2.00
2022-08-17T11:28:23.352Z,4.43
2022-08-17T11:31:11.357Z,6.40
2022-08-17T11:33:43.197Z,1.25
2022-08-17T11:36:33.087Z,1.67
2022-08-17T11:39:27.865Z,4.75
2022-08-17T11:42:21.032Z,2.85
2022-08-17T11:44:57.310Z,2.50
2022-08-17T11:48:16.157Z,3.13
2022-08-17T11:51:17.895Z,10.45
2022-08-17T11:53:46.817Z,1.33
2022-08-17T11:56:40.582Z,1.30
2022-08-17T11:59:38.251Z,1.38
2022-08-17T12:02:32.617Z,7.22
2022-08-17T12:05:15.734Z,2.90
2022-08-17T12:08:07.845Z,1.40
2022-08-17T12:10:41.738Z,1.23
2022-08-17T12:13:17.276Z,4.85
2022-08-17T12:15:51.859Z,7.20
2022-08-17T12:18:33.415Z,7.22
2022-08-17T12:22:00.617Z,2.10
2022-08-17T12:24:41.054Z,1.25
2022-08-17T12:27:13.263Z,3.72
2022-08-17T12:29:46.488Z,2.07
2022-08-17T12:34:50.369Z,2.70
2022-08-17T12:37:26.306Z,1.77
2022-08-17T12:40:02.370Z,3.60
2022-08-17T12:42:38.840Z,1.50
2022-08-17T12:45:25.816Z,3.08
2022-08-17T12:48:09.611Z,2.03
2022-08-17T12:50:43.794Z,1.90
2022-08-17T12:53:18.863Z,3.65
2022-08-17T12:55:48.257Z,3.75
2022-08-17T12:58:23.477Z,1.90
2022-08-17T13:01:03.287Z,4.05
2022-08-17T13:03:43.095Z,4.25
2022-08-17T13:06:15.671Z,2.38
2022-08-17T13:08:51.435Z,3.60
2022-08-17T13:11:26.420Z,2.28
2022-08-17T13:14:09.682Z,8.77
2022-08-17T13:16:38.594Z,9.43
2022-08-17T13:19:15.998Z,5.47
2022-08-17T13:21:53.471Z,2.00
2022-08-17T13:24:38.391Z,8.82
2022-08-17T13:27:11.357Z,11.68
2022-08-17T13:30:02.505Z,16.92
2022-08-17T13:32:43.866Z,7.82
2022-08-17T13:35:39.251Z,17.83
2022-08-17T13:38:16.672Z,21.63
2022-08-17T13:40:51.102Z,31.13
2022-08-17T13:43:51.115Z,40.05
2022-08-17T13:46:27.900Z,42.40
2022-08-17T13:49:10.999Z,33.67
2022-08-17T13:51:51.381Z,22.85
2022-08-17T13:54:31.033Z,37.72
2022-08-17T13:57:08.368Z,15.75
2022-08-17T13:59:52.886Z,7.80
2022-08-17T14:02:28.463Z,11.13
2022-08-17T14:04:58.699Z,37.00
2022-08-17T14:07:31.844Z,29.98
2022-08-17T14:12:34.136Z,33.55
2022-08-17T14:15:03.761Z,24.67
2022-08-17T14:17:38.078Z,24.40
2022-08-17T14:20:10.896Z,21.60
2022-08-17T14:22:44.554Z,11.52
2022-08-17T14:25:16.448Z,10.90
2022-08-17T14:27:52.777Z,12.68
2022-08-17T14:30:30.012Z,18.35
2022-08-17T14:32:59.162Z,10.93
2022-08-17T14:35:29.537Z,2.75
2022-08-17T14:37:58.839Z,4.40
2022-08-17T14:40:28.325Z,19.02
2022-08-17T14:42:59.293Z,23.02
2022-08-17T14:45:32.929Z,7.80
2022-08-17T14:48:05.407Z,18.70
2022-08-17T14:50:36.145Z,25.73
2022-08-17T14:53:09.674Z,13.65
2022-08-17T14:55:41.084Z,6.97
2022-08-17T14:58:10.575Z,39.25
2022-08-17T15:00:40.668Z,11.60
2022-08-17T15:03:09.336Z,21.70
2022-08-17T15:05:40.448Z,8.75
2022-08-17T15:08:09.329Z,3.08
2022-08-17T15:10:40.984Z,10.05
2022-08-17T15:13:22.174Z,6.88
2022-08-17T15:15:51.748Z,8.85
2022-08-17T15:18:20.387Z,17.83
2022-08-17T15:20:50.767Z,8.05
2022-08-17T15:23:22.771Z,12.75
2022-08-17T15:25:54.945Z,10.23
2022-08-17T15:28:26.951Z,11.57
2022-08-17T15:30:55.998Z,11.73
2022-08-17T15:33:32.457Z,14.60
2022-08-17T15:36:08.216Z,5.25
2022-08-17T15:38:40.762Z,5.45
2022-08-17T15:41:16.692Z,2.88
2022-08-17T15:43:47.192Z,6.13
2022-08-17T15:46:26.943Z,8.85
2022-08-17T15:49:00.309Z,4.38
2022-08-17T15:51:35.319Z,16.75
2022-08-17T15:54:19.267Z,18.52
2022-08-17T15:56:51.384Z,9.25
2022-08-17T15:59:20.763Z,4.65
2022-08-17T16:03:15.105Z,2.80
2022-08-17T16:04:40.793Z,3.97
2022-08-17T16:07:12.672Z,5.68
2022-08-17T16:09:41.098Z,2.00
2022-08-17T16:12:12.036Z,4.85
2022-08-17T16:14:40.853Z,10.63
2022-08-17T16:17:38.491Z,8.23
2022-08-17T16:20:00.814Z,7.93
2022-08-17T16:22:43.229Z,7.53
2022-08-17T16:25:19.288Z,7.32
2022-08-17T16:27:54.322Z,6.07
2022-08-17T16:30:25.976Z,9.38
2022-08-17T16:32:56.480Z,9.57
2022-08-17T16:35:28.405Z,2.90
2022-08-17T16:37:58.533Z,6.22
2022-08-17T16:40:29.591Z,4.13
2022-08-17T16:42:59.902Z,1.98
2022-08-17T16:45:32.178Z,5.88
2022-08-17T16:48:02.882Z,4.05
2022-08-17T16:50:33.226Z,6.03
2022-08-17T16:53:18.470Z,7.50
2022-08-17T16:55:53.376Z,6.63
2022-08-17T16:58:22.061Z,4.93
2022-08-17T17:00:50.072Z,10.50
2022-08-17T17:03:26.330Z,3.63
2022-08-17T17:06:06.474Z,1.88
2022-08-17T17:08:45.595Z,6.97
2022-08-17T17:11:47.634Z,5.63
2022-08-17T17:14:29.685Z,4.28
2022-08-17T17:17:05.728Z,5.15
2022-08-17T17:19:37.019Z,1.63
2022-08-17T17:22:18.263Z,4.82
2022-08-17T17:25:10.958Z,5.55
2022-08-17T17:28:01.319Z,3.65
2022-08-17T17:30:42.227Z,3.53
2022-08-17T17:33:21.953Z,6.00
2022-08-17T17:35:50.580Z,1.50
2022-08-17T17:38:29.168Z,4.85
2022-08-17T17:41:25.850Z,14.10
2022-08-17T17:44:10.099Z,8.20
2022-08-17T17:46:43.933Z,7.20
2022-08-17T17:49:15.609Z,9.80
2022-08-17T17:52:10.947Z,3.83
2022-08-17T17:55:15.765Z,5.78
2022-08-17T17:58:21.624Z,1.77
2022-08-17T18:01:51.062Z,3.25
2022-08-17T18:04:46.142Z,2.75
2022-08-17T18:07:36.578Z,6.78
2022-08-17T18:10:57.140Z,5.53
2022-08-17T18:13:54.655Z,3.05
2022-08-17T18:16:24.347Z,2.58
2022-08-17T18:18:54.104Z,10.32
2022-08-17T18:21:28.962Z,6.88
2022-08-17T18:24:04.995Z,1.45
2022-08-17T18:26:44.961Z,2.80
2022-08-17T18:29:24.607Z,7.90
2022-08-17T18:32:17.338Z,2.17
2022-08-17T18:37:44.007Z,9.77
2022-08-17T18:40:19.146Z,5.95
2022-08-17T18:43:04.169Z,0.88
2022-08-17T18:45:42.170Z,3.22
2022-08-17T18:48:24.961Z,9.13
2022-08-17T18:50:55.628Z,8.25
2022-08-17T18:53:42.908Z,4.15
2022-08-17T18:56:32.543Z,5.78
2022-08-17T18:59:14.237Z,9.40
2022-08-17T19:01:59.965Z,3.57
2022-08-17T19:04:41.973Z,2.65
2022-08-17T19:07:25.305Z,1.13
2022-08-17T19:09:56.929Z,4.28
2022-08-17T19:12:32.502Z,3.25
2022-08-17T19:15:02.051Z,6.25
2022-08-17T19:17:39.324Z,3.08
2022-08-17T19:20:16.201Z,3.15
2022-08-17T19:22:53.866Z,3.60
2022-08-17T19:25:32.442Z,1.15
2022-08-17T19:28:22.377Z,6.50
2022-08-17T19:31:00.738Z,1.00
2022-08-17T19:33:30.277Z,5.07
2022-08-17T19:36:35.618Z,1.85
2022-08-17T19:39:37.780Z,3.63
2022-08-17T19:42:33.753Z,1.00
2022-08-17T19:45:13.184Z,1.60
2022-08-17T19:48:15.481Z,6.53
2022-08-17T19:50:56.031Z,2.47
2022-08-17T19:54:04.392Z,4.78
2022-08-17T19:56:45.134Z,4.93
2022-08-17T19:59:20.368Z,1.55
2022-08-17T20:02:10.525Z,2.50
2022-08-17T20:04:46.848Z,7.10
2022-08-17T20:07:27.771Z,10.63
2022-08-17T20:10:10.017Z,2.80
2022-08-17T20:12:41.866Z,1.00
2022-08-17T20:15:16.860Z,4.03
2022-08-17T20:17:48.156Z,0.80
2022-08-17T20:20:46.762Z,1.95
2022-08-17T20:23:30.627Z,1.35
2022-08-17T20:26:07.160Z,5.70
2022-08-17T20:28:40.354Z,3.63
2022-08-17T20:31:43.292Z,1.65
2022-08-17T20:34:41.146Z,2.47
2022-08-17T20:37:29.398Z,2.80
2022-08-17T20:39:58.197Z,3.53
2022-08-17T20:42:28.356Z,6.25
2022-08-17T20:45:03.283Z,6.72
2022-08-17T20:48:15.204Z,4.30
2022-08-17T20:50:46.364Z,5.47
2022-08-17T20:53:50.087Z,4.10
2022-08-17T20:56:46.597Z,6.80
2022-08-17T20:59:26.743Z,2.30
2022-08-17T21:02:12.386Z,4.72
2022-08-17T21:05:02.015Z,3.40
2022-08-17T21:07:53.935Z,2.85
2022-08-17T21:10:25.855Z,3.50
2022-08-17T21:13:15.750Z,10.25
2022-08-17T21:15:54.047Z,5.25
2022-08-17T21:18:27.299Z,1.38
2022-08-17T21:21:17.626Z,7.00
2022-08-17T21:23:54.312Z,2.50
2022-08-17T21:26:51.262Z,3.13
2022-08-17T21:29:32.419Z,4.60
2022-08-17T21:32:06.322Z,6.60
2022-08-17T21:34:45.665Z,0.93
2022-08-17T21:37:31.997Z,11.45
2022-08-17T21:40:19.402Z,4.30
2022-08-17T21:42:56.414Z,1.52
2022-08-17T21:45:32.541Z,1.77
2022-08-17T21:48:14.028Z,0.85
2022-08-17T21:51:09.666Z,3.63
2022-08-17T21:53:43.638Z,3.95
2022-08-17T21:56:21.119Z,3.63
2022-08-17T21:58:58.081Z,6.88
2022-08-17T22:01:31.059Z,2.40
2022-08-17T22:04:19.286Z,11.38
2022-08-17T22:06:56.470Z,4.78
2022-08-17T22:09:48.096Z,8.38
2022-08-17T22:12:25.209Z,3.58
2022-08-17T22:15:05.523Z,2.83
2022-08-17T22:17:39.549Z,5.72
2022-08-17T22:20:16.350Z,3.75
2022-08-17T22:23:06.362Z,5.18
2022-08-17T22:25:38.194Z,2.97
2022-08-17T22:28:12.316Z,7.93
2022-08-17T22:31:01.158Z,1.67
2022-08-17T22:33:32.950Z,3.88
2022-08-17T22:36:31.484Z,3.63
2022-08-17T22:39:09.522Z,6.03
2022-08-17T22:41:53.262Z,15.23
2022-08-17T22:44:49.398Z,6.50
2022-08-17T22:47:18.328Z,8.20
2022-08-17T22:49:53.596Z,5.32
2022-08-17T22:52:57.344Z,8.65
2022-08-17T22:58:34.947Z,9.75
2022-08-17T23:01:43.154Z,15.73
2022-08-17T23:04:33.590Z,7.53
2022-08-17T23:07:02.354Z,8.25
2022-08-17T23:09:31.263Z,6.82
2022-08-17T23:12:00.863Z,8.00
2022-08-17T23:14:33.045Z,9.30
2022-08-17T23:17:02.809Z,3.28
2022-08-17T23:19:34.742Z,11.05
2022-08-17T23:22:05.758Z,10.23
2022-08-17T23:24:41.658Z,4.22
2022-08-17T23:27:10.290Z,7.32
2022-08-17T23:29:43.457Z,7.82
2022-08-17T23:32:16.081Z,7.20
2022-08-17T23:34:48.389Z,9.15
2022-08-17T23:39:47.116Z,16.45
2022-08-17T23:42:23.099Z,16.83
2022-08-17T23:44:52.161Z,13.23
2022-08-17T23:47:20.983Z,8.20
2022-08-17T23:49:49.846Z,10.10
2022-08-17T23:52:24.031Z,6.05
2022-08-17T23:54:52.807Z,9.07
2022-08-17T23:57:33.417Z,13.82
